createdAt,value
2018-04-30T00:02:10.022Z,9.60
2018-04-30T00:04:37.433Z,8.90
2018-04-30T00:07:04.875Z,9.97
2018-04-30T00:09:32.284Z,9.47
2018-04-30T00:11:59.700Z,9.90
2018-04-30T00:14:27.095Z,11.73
2018-04-30T00:16:54.495Z,11.00
2018-04-30T00:19:21.914Z,10.80
2018-04-30T00:21:49.312Z,10.67
2018-04-30T00:24:16.733Z,12.33
2018-04-30T00:26:44.142Z,8.13
2018-04-30T00:29:11.549Z,10.20
2018-04-30T00:31:38.976Z,9.77
2018-04-30T00:34:06.385Z,10.97
2018-04-30T00:36:33.779Z,11.60
2018-04-30T00:39:01.200Z,8.87
2018-04-30T00:41:28.600Z,7.53
2018-04-30T00:43:56.027Z,10.47
2018-04-30T00:46:23.688Z,11.07
2018-04-30T00:48:51.100Z,8.63
2018-04-30T00:51:18.505Z,10.87
2018-04-30T00:53:45.908Z,9.10
2018-04-30T00:56:13.329Z,10.40
2018-04-30T00:58:40.739Z,8.63
2018-04-30T01:01:08.131Z,9.53
2018-04-30T01:03:35.548Z,8.13
2018-04-30T01:06:02.945Z,14.13
2018-04-30T01:08:33.708Z,9.97
2018-04-30T01:11:01.124Z,9.77
2018-04-30T01:13:28.512Z,8.77
2018-04-30T01:15:55.931Z,11.20
2018-04-30T01:18:23.332Z,10.67
2018-04-30T01:20:50.723Z,9.93
2018-04-30T01:23:18.140Z,10.70
2018-04-30T01:25:45.796Z,10.47
2018-04-30T01:28:13.197Z,12.10
2018-04-30T01:30:40.600Z,9.53
2018-04-30T01:33:08.015Z,8.00
2018-04-30T01:35:35.409Z,9.77
2018-04-30T01:38:02.827Z,8.57
2018-04-30T01:40:30.229Z,7.87
2018-04-30T01:42:57.668Z,10.37
2018-04-30T01:45:25.068Z,10.23
2018-04-30T01:47:52.477Z,9.73
2018-04-30T01:50:19.899Z,11.63
2018-04-30T01:52:47.310Z,12.17
2018-04-30T01:55:15.075Z,9.17
2018-04-30T01:57:42.484Z,9.60
2018-04-30T02:00:09.914Z,10.87
2018-04-30T02:02:37.328Z,8.90
2018-04-30T02:05:04.729Z,11.47
2018-04-30T02:07:32.137Z,9.10
2018-04-30T02:09:59.537Z,10.37
2018-04-30T02:12:26.936Z,8.97
2018-04-30T02:14:54.357Z,10.77
2018-04-30T02:17:21.753Z,8.33
2018-04-30T02:19:49.168Z,8.50
2018-04-30T02:22:16.564Z,8.77
2018-04-30T02:24:43.976Z,9.07
2018-04-30T02:27:11.386Z,8.67
2018-04-30T02:29:38.781Z,8.77
2018-04-30T02:32:06.201Z,8.90
2018-04-30T02:34:33.591Z,9.80
2018-04-30T02:37:01.005Z,8.63
2018-04-30T02:39:28.407Z,8.57
2018-04-30T02:41:55.817Z,8.33
2018-04-30T02:44:23.228Z,8.80
2018-04-30T02:46:50.657Z,9.40
2018-04-30T02:49:18.047Z,8.90
2018-04-30T02:51:45.765Z,10.47
2018-04-30T02:54:13.223Z,8.87
2018-04-30T02:56:40.665Z,8.30
2018-04-30T02:59:08.419Z,8.13
2018-04-30T03:01:35.794Z,14.70
2018-04-30T03:04:03.206Z,8.90
2018-04-30T03:06:30.620Z,14.00
2018-04-30T03:08:58.016Z,9.87
2018-04-30T03:11:25.683Z,11.17
2018-04-30T03:13:53.087Z,10.70
2018-04-30T03:16:20.482Z,10.30
2018-04-30T03:18:47.898Z,8.07
2018-04-30T03:21:15.296Z,10.77
2018-04-30T03:23:42.705Z,10.17
2018-04-30T03:26:10.120Z,10.97
2018-04-30T03:28:37.536Z,12.57
2018-04-30T03:31:04.960Z,12.37
2018-04-30T03:33:32.379Z,11.27
2018-04-30T03:35:59.788Z,14.50
2018-04-30T03:38:26.497Z,9.73
2018-04-30T03:40:53.908Z,17.50
2018-04-30T03:43:21.327Z,15.97
2018-04-30T03:45:48.750Z,13.93
2018-04-30T03:48:16.171Z,11.90
2018-04-30T03:50:43.586Z,10.43
2018-04-30T03:53:11.011Z,14.47
2018-04-30T03:55:38.424Z,12.80
2018-04-30T03:58:05.889Z,12.07
2018-04-30T04:00:45.072Z,11.73
2018-04-30T04:03:24.300Z,16.60
2018-04-30T04:08:55.504Z,15.57
2018-04-30T04:11:22.942Z,13.00
2018-04-30T04:13:50.431Z,11.60
2018-04-30T04:16:17.840Z,13.97
2018-04-30T04:18:45.248Z,12.60
2018-04-30T04:21:12.668Z,11.43
2018-04-30T04:23:40.071Z,12.17
2018-04-30T04:26:07.505Z,14.43
2018-04-30T04:28:34.907Z,9.63
2018-04-30T04:31:02.332Z,12.90
2018-04-30T04:33:29.779Z,10.30
2018-04-30T04:35:57.544Z,13.30
2018-04-30T04:38:24.935Z,10.43
2018-04-30T04:40:52.348Z,12.27
2018-04-30T04:43:19.760Z,13.67
2018-04-30T04:45:47.167Z,15.90
2018-04-30T04:48:14.819Z,12.43
2018-04-30T04:50:42.224Z,14.20
2018-04-30T04:53:09.655Z,12.23
2018-04-30T04:55:37.080Z,12.60
2018-04-30T04:58:04.481Z,18.80
2018-04-30T05:00:32.257Z,13.80
2018-04-30T05:02:59.658Z,16.20
2018-04-30T05:05:27.080Z,14.50
2018-04-30T05:07:54.503Z,17.33
2018-04-30T05:10:21.920Z,16.10
2018-04-30T05:12:49.323Z,14.73
2018-04-30T05:15:16.752Z,14.50
2018-04-30T05:17:44.168Z,16.37
2018-04-30T05:20:11.584Z,19.00
2018-04-30T05:22:39.021Z,17.40
2018-04-30T05:25:06.447Z,17.90
2018-04-30T05:27:33.868Z,17.90
2018-04-30T05:30:01.276Z,23.93
2018-04-30T05:32:28.775Z,17.83
2018-04-30T05:34:56.192Z,18.67
2018-04-30T05:37:23.615Z,17.30
2018-04-30T05:39:51.049Z,17.43
2018-04-30T05:42:18.457Z,19.20
2018-04-30T05:44:46.204Z,18.73
2018-04-30T05:47:13.620Z,17.17
2018-04-30T05:49:41.028Z,18.70
2018-04-30T05:52:08.457Z,21.60
2018-04-30T05:54:35.908Z,23.87
2018-04-30T05:57:03.343Z,25.67
2018-04-30T05:59:30.749Z,25.87
2018-04-30T06:01:58.173Z,27.37
2018-04-30T06:04:25.579Z,27.27
2018-04-30T06:06:53.013Z,24.47
2018-04-30T06:09:20.400Z,25.60
2018-04-30T06:11:47.828Z,27.67
2018-04-30T06:14:15.248Z,27.97
2018-04-30T06:16:42.657Z,30.70
2018-04-30T06:19:10.083Z,29.27
2018-04-30T06:21:37.637Z,26.90
2018-04-30T06:24:05.048Z,28.87
2018-04-30T06:26:32.465Z,30.73
2018-04-30T06:28:59.868Z,29.63
2018-04-30T06:31:27.288Z,28.90
2018-04-30T06:33:54.726Z,30.03
2018-04-30T06:36:22.129Z,31.73
2018-04-30T06:38:49.553Z,31.10
2018-04-30T06:41:16.979Z,25.17
2018-04-30T06:43:44.384Z,22.20
2018-04-30T06:46:11.787Z,20.33
2018-04-30T06:48:39.209Z,19.07
2018-04-30T06:51:06.617Z,20.00
2018-04-30T06:53:34.319Z,17.30
2018-04-30T06:56:01.708Z,14.10
2018-04-30T06:58:29.108Z,9.73
2018-04-30T07:00:56.527Z,10.07
2018-04-30T07:03:23.927Z,6.93
2018-04-30T07:05:51.353Z,4.97
2018-04-30T07:08:18.757Z,4.60
2018-04-30T07:10:46.168Z,4.33
2018-04-30T07:13:13.568Z,2.77
2018-04-30T07:15:40.980Z,4.07
2018-04-30T07:18:08.380Z,5.53
2018-04-30T07:23:09.711Z,2.80
2018-04-30T07:25:37.128Z,3.53
2018-04-30T07:28:04.530Z,3.10
2018-04-30T07:30:31.920Z,2.30
2018-04-30T07:32:59.332Z,2.50
2018-04-30T07:35:26.744Z,3.17
2018-04-30T07:37:54.231Z,6.13
2018-04-30T07:40:21.590Z,2.23
2018-04-30T07:42:49.005Z,2.53
2018-04-30T07:45:16.421Z,6.37
2018-04-30T07:50:17.724Z,2.40
2018-04-30T07:52:45.123Z,3.73
2018-04-30T07:55:12.541Z,4.80
2018-04-30T07:57:39.933Z,1.87
2018-04-30T08:00:07.324Z,1.90
2018-04-30T08:02:34.759Z,2.90
2018-04-30T08:05:02.149Z,3.27
2018-04-30T08:07:29.562Z,2.23
2018-04-30T08:09:56.958Z,2.33
2018-04-30T08:12:24.368Z,5.63
2018-04-30T08:14:51.798Z,2.63
2018-04-30T08:17:19.161Z,2.17
2018-04-30T08:19:46.574Z,2.20
2018-04-30T08:22:13.973Z,2.00
2018-04-30T08:24:41.382Z,2.10
2018-04-30T08:27:08.771Z,3.17
2018-04-30T08:29:36.196Z,3.33
2018-04-30T08:32:03.601Z,2.03
2018-04-30T08:34:31.009Z,3.40
2018-04-30T08:36:58.424Z,3.57
2018-04-30T08:39:25.820Z,3.20
2018-04-30T08:41:53.223Z,3.47
2018-04-30T08:44:20.617Z,3.20
2018-04-30T08:46:48.271Z,3.70
2018-04-30T08:49:15.663Z,2.47
2018-04-30T08:51:43.060Z,2.40
2018-04-30T08:54:10.484Z,4.03
2018-04-30T08:56:37.879Z,2.00
2018-04-30T08:59:05.560Z,3.20
2018-04-30T09:01:32.954Z,2.23
2018-04-30T09:04:00.352Z,3.80
2018-04-30T09:06:27.790Z,2.60
2018-04-30T09:08:55.189Z,3.00
2018-04-30T09:13:56.363Z,3.30
2018-04-30T09:16:23.939Z,2.60
2018-04-30T09:18:51.338Z,3.50
2018-04-30T09:21:18.736Z,3.93
2018-04-30T09:23:46.196Z,2.53
2018-04-30T09:26:13.554Z,3.73
2018-04-30T09:28:40.956Z,3.10
2018-04-30T09:31:08.359Z,5.40
2018-04-30T09:33:35.766Z,2.63
2018-04-30T09:36:03.429Z,2.93
2018-04-30T09:38:30.828Z,3.33
2018-04-30T09:40:58.236Z,2.57
2018-04-30T09:43:25.652Z,4.23
2018-04-30T09:45:53.049Z,2.83
2018-04-30T09:48:20.473Z,2.80
2018-04-30T09:50:47.874Z,2.57
2018-04-30T09:53:15.268Z,2.50
2018-04-30T09:55:42.690Z,3.73
2018-04-30T09:58:10.086Z,1.93
2018-04-30T10:00:37.505Z,4.93
2018-04-30T10:03:04.907Z,2.20
2018-04-30T10:05:32.341Z,2.97
2018-04-30T10:07:59.782Z,2.37
2018-04-30T10:10:27.177Z,3.00
2018-04-30T10:12:54.662Z,2.23
2018-04-30T10:15:22.072Z,2.13
2018-04-30T10:17:49.527Z,3.33
2018-04-30T10:20:16.888Z,2.27
2018-04-30T10:22:44.291Z,2.80
2018-04-30T10:25:11.696Z,2.33
2018-04-30T10:27:39.119Z,2.00
2018-04-30T10:30:06.532Z,2.27
2018-04-30T10:32:33.953Z,2.50
2018-04-30T10:35:01.360Z,2.33
2018-04-30T10:37:28.784Z,3.13
2018-04-30T10:39:56.179Z,2.67
2018-04-30T10:42:23.580Z,3.17
2018-04-30T10:44:50.999Z,2.97
2018-04-30T10:47:18.412Z,2.50
2018-04-30T10:49:46.298Z,3.00
2018-04-30T10:52:13.684Z,2.27
2018-04-30T10:54:41.083Z,2.30
2018-04-30T10:57:08.496Z,4.00
2018-04-30T10:59:35.904Z,5.87
2018-04-30T11:02:03.311Z,2.23
2018-04-30T11:04:30.731Z,6.07
2018-04-30T11:06:58.140Z,3.13
2018-04-30T11:09:25.865Z,12.43
2018-04-30T11:11:53.259Z,8.50
2018-04-30T11:14:20.660Z,2.10
2018-04-30T11:16:48.092Z,2.30
2018-04-30T11:19:15.489Z,2.40
2018-04-30T11:21:42.887Z,2.60
2018-04-30T11:24:10.299Z,2.90
2018-04-30T11:26:37.696Z,5.77
2018-04-30T11:29:05.221Z,7.63
2018-04-30T11:31:32.617Z,5.30
2018-04-30T11:34:00.063Z,5.70
2018-04-30T11:36:27.491Z,3.93
2018-04-30T11:38:54.892Z,8.93
2018-04-30T11:41:22.374Z,3.20
2018-04-30T11:43:49.793Z,7.60
2018-04-30T11:46:17.210Z,1.70
2018-04-30T11:48:44.626Z,1.90
2018-04-30T11:51:12.031Z,3.03
2018-04-30T11:53:39.451Z,3.63
2018-04-30T11:56:06.867Z,4.23
2018-04-30T11:58:34.300Z,3.13
2018-04-30T12:01:01.692Z,5.47
2018-04-30T12:03:29.097Z,5.90
2018-04-30T12:05:56.504Z,3.90
2018-04-30T12:08:23.931Z,2.63
2018-04-30T12:10:51.332Z,3.87
2018-04-30T12:13:18.748Z,2.80
2018-04-30T12:15:46.148Z,4.13
2018-04-30T12:18:13.553Z,1.93
2018-04-30T12:20:40.968Z,4.20
2018-04-30T12:23:08.384Z,3.30
2018-04-30T12:25:35.824Z,2.33
2018-04-30T12:28:03.223Z,3.00
2018-04-30T12:30:30.635Z,1.90
2018-04-30T12:32:58.048Z,2.43
2018-04-30T12:35:25.457Z,3.57
2018-04-30T12:37:52.879Z,2.77
2018-04-30T12:40:20.285Z,5.60
2018-04-30T12:42:47.696Z,1.57
2018-04-30T12:45:15.119Z,3.40
2018-04-30T12:47:42.812Z,2.33
2018-04-30T12:50:10.212Z,4.63
2018-04-30T12:52:37.607Z,3.57
2018-04-30T12:55:05.033Z,5.00
2018-04-30T12:57:32.435Z,2.73
2018-04-30T12:59:59.856Z,6.73
2018-04-30T13:02:27.328Z,3.63
2018-04-30T13:04:55.971Z,5.73
2018-04-30T13:07:23.399Z,2.57
2018-04-30T13:09:51.056Z,5.70
2018-04-30T13:12:18.458Z,3.23
2018-04-30T13:14:45.879Z,3.40
2018-04-30T13:17:13.569Z,8.13
2018-04-30T13:19:40.968Z,4.07
2018-04-30T13:22:08.389Z,2.50
2018-04-30T13:24:35.800Z,2.37
2018-04-30T13:27:03.208Z,2.83
2018-04-30T13:29:30.769Z,2.97
2018-04-30T13:31:58.172Z,3.50
2018-04-30T13:34:25.596Z,2.47
2018-04-30T13:36:53.009Z,3.17
2018-04-30T13:39:20.407Z,1.73
2018-04-30T13:41:47.835Z,2.97
2018-04-30T13:44:15.243Z,3.40
2018-04-30T13:46:42.646Z,2.37
2018-04-30T13:49:10.384Z,2.37
2018-04-30T13:51:37.784Z,4.33
2018-04-30T13:54:05.205Z,2.73
2018-04-30T13:56:32.634Z,3.90
2018-04-30T13:59:00.036Z,1.73
2018-04-30T14:01:27.458Z,5.53
2018-04-30T14:03:54.868Z,3.90
2018-04-30T14:06:22.276Z,4.07
2018-04-30T14:08:49.722Z,2.73
2018-04-30T14:11:17.147Z,5.70
2018-04-30T14:13:44.573Z,2.57
2018-04-30T14:16:11.975Z,1.80
2018-04-30T14:18:39.372Z,4.63
2018-04-30T14:21:06.780Z,2.77
2018-04-30T14:23:34.181Z,7.87
2018-04-30T14:26:01.987Z,8.20
2018-04-30T14:28:29.372Z,5.00
2018-04-30T14:30:56.779Z,2.10
2018-04-30T14:33:24.198Z,5.47
2018-04-30T14:35:51.856Z,4.27
2018-04-30T14:38:19.352Z,3.00
2018-04-30T14:40:46.718Z,1.87
2018-04-30T14:43:14.123Z,5.83
2018-04-30T14:45:41.884Z,3.47
2018-04-30T14:48:09.315Z,4.43
2018-04-30T14:50:36.784Z,2.23
2018-04-30T14:53:04.156Z,2.13
2018-04-30T14:55:31.560Z,2.80
2018-04-30T14:57:58.955Z,1.53
2018-04-30T15:00:26.377Z,2.83
2018-04-30T15:02:53.777Z,4.00
2018-04-30T15:05:21.507Z,3.63
2018-04-30T15:07:48.908Z,2.87
2018-04-30T15:10:16.307Z,4.07
2018-04-30T15:12:43.756Z,2.30
2018-04-30T15:15:11.258Z,2.50
2018-04-30T15:17:38.651Z,4.13
2018-04-30T15:20:06.069Z,2.20
2018-04-30T15:22:33.487Z,4.90
2018-04-30T15:25:00.888Z,6.00
2018-04-30T15:27:28.340Z,6.10
2018-04-30T15:29:55.744Z,5.63
2018-04-30T15:32:23.163Z,2.50
2018-04-30T15:34:50.548Z,4.77
2018-04-30T15:37:17.968Z,5.10
2018-04-30T15:39:45.367Z,7.57
2018-04-30T15:42:12.896Z,2.17
2018-04-30T15:44:40.196Z,2.17
2018-04-30T15:47:07.621Z,2.20
2018-04-30T15:49:35.055Z,3.10
2018-04-30T15:52:02.471Z,5.13
2018-04-30T15:54:29.915Z,4.27
2018-04-30T15:56:57.300Z,4.63
2018-04-30T15:59:24.701Z,2.97
2018-04-30T16:01:52.112Z,3.03
2018-04-30T16:04:19.515Z,1.80
2018-04-30T16:06:47.179Z,2.17
2018-04-30T16:09:14.584Z,3.23
2018-04-30T16:11:42.007Z,1.87
2018-04-30T16:14:09.477Z,5.17
2018-04-30T16:16:36.844Z,5.83
2018-04-30T16:19:04.273Z,2.07
2018-04-30T16:21:31.984Z,2.07
2018-04-30T16:23:59.396Z,3.20
2018-04-30T16:26:26.808Z,7.73
2018-04-30T16:28:54.257Z,1.80
2018-04-30T16:31:21.659Z,3.70
2018-04-30T16:33:49.094Z,1.63
2018-04-30T16:36:16.487Z,2.67
2018-04-30T16:38:43.891Z,2.23
2018-04-30T16:41:11.304Z,1.33
2018-04-30T16:43:38.719Z,4.10
2018-04-30T16:46:06.144Z,4.00
2018-04-30T16:48:33.560Z,3.80
2018-04-30T16:51:01.119Z,4.33
2018-04-30T16:53:28.952Z,3.73
2018-04-30T16:55:56.357Z,4.33
2018-04-30T16:58:23.780Z,3.87
2018-04-30T17:00:51.187Z,4.03
2018-04-30T17:03:18.860Z,4.03
2018-04-30T17:05:46.265Z,2.50
2018-04-30T17:08:13.664Z,2.70
2018-04-30T17:10:41.381Z,3.17
2018-04-30T17:13:08.762Z,2.40
2018-04-30T17:15:36.177Z,3.27
2018-04-30T17:18:03.661Z,5.07
2018-04-30T17:20:31.384Z,5.37
2018-04-30T17:22:58.855Z,3.40
2018-04-30T17:25:26.259Z,2.33
2018-04-30T17:27:53.762Z,4.03
2018-04-30T17:30:21.139Z,2.10
2018-04-30T17:32:48.534Z,4.23
2018-04-30T17:35:15.956Z,2.93
2018-04-30T17:37:43.357Z,2.40
2018-04-30T17:40:10.764Z,3.43
2018-04-30T17:42:38.221Z,2.63
2018-04-30T17:45:05.617Z,2.40
2018-04-30T17:47:33.043Z,3.20
2018-04-30T17:50:00.452Z,4.63
2018-04-30T17:52:27.859Z,3.50
2018-04-30T17:54:55.268Z,2.60
2018-04-30T17:57:22.680Z,3.67
2018-04-30T17:59:50.094Z,3.53
2018-04-30T18:02:17.514Z,3.20
2018-04-30T18:04:44.924Z,3.10
2018-04-30T18:07:12.348Z,3.00
2018-04-30T18:09:39.761Z,3.03
2018-04-30T18:12:07.172Z,1.77
2018-04-30T18:14:34.580Z,3.23
2018-04-30T18:17:01.995Z,2.20
2018-04-30T18:19:29.401Z,3.17
2018-04-30T18:21:57.061Z,2.80
2018-04-30T18:24:24.459Z,2.10
2018-04-30T18:26:51.915Z,3.47
2018-04-30T18:29:19.293Z,2.60
2018-04-30T18:31:46.703Z,3.27
2018-04-30T18:34:14.109Z,2.03
2018-04-30T18:36:41.519Z,1.87
2018-04-30T18:39:08.932Z,3.87
2018-04-30T18:41:36.332Z,3.80
2018-04-30T18:44:03.750Z,4.23
2018-04-30T18:46:31.544Z,3.80
2018-04-30T18:48:58.960Z,2.00
2018-04-30T18:51:26.364Z,2.53
2018-04-30T18:53:54.103Z,2.77
2018-04-30T18:56:21.503Z,1.83
2018-04-30T18:58:48.919Z,3.47
2018-04-30T19:01:16.349Z,2.27
2018-04-30T19:03:43.916Z,4.07
2018-04-30T19:06:11.315Z,4.30
2018-04-30T19:08:38.732Z,2.23
2018-04-30T19:11:06.218Z,2.20
2018-04-30T19:13:33.553Z,3.63
2018-04-30T19:16:00.976Z,1.70
2018-04-30T19:18:28.409Z,2.43
2018-04-30T19:20:55.808Z,2.13
2018-04-30T19:23:23.228Z,2.30
2018-04-30T19:25:50.646Z,4.40
2018-04-30T19:28:18.039Z,1.83
2018-04-30T19:30:45.456Z,4.00
2018-04-30T19:33:12.857Z,4.27
2018-04-30T19:35:40.271Z,1.27
2018-04-30T19:38:07.667Z,2.60
2018-04-30T19:40:35.151Z,2.30
2018-04-30T19:43:02.604Z,1.70
2018-04-30T19:45:30.024Z,2.10
2018-04-30T19:47:57.502Z,3.37
2018-04-30T19:50:24.964Z,2.10
2018-04-30T19:52:52.442Z,2.37
2018-04-30T19:55:19.755Z,4.47
2018-04-30T19:57:47.163Z,1.87
2018-04-30T20:00:14.624Z,1.57
2018-04-30T20:02:42.034Z,2.20
2018-04-30T20:05:09.436Z,3.03
2018-04-30T20:07:36.852Z,4.77
2018-04-30T20:10:04.292Z,2.90
2018-04-30T20:12:31.716Z,2.90
2018-04-30T20:14:59.177Z,2.23
2018-04-30T20:17:26.600Z,1.70
2018-04-30T20:19:54.004Z,2.30
2018-04-30T20:22:21.423Z,1.57
2018-04-30T20:24:48.820Z,3.07
2018-04-30T20:27:16.260Z,1.53
2018-04-30T20:29:43.675Z,1.43
2018-04-30T20:32:11.343Z,2.40
2018-04-30T20:34:38.758Z,3.03
2018-04-30T20:37:06.155Z,3.77
2018-04-30T20:39:33.585Z,1.50
2018-04-30T20:42:00.980Z,1.83
2018-04-30T20:44:28.414Z,2.63
2018-04-30T20:46:55.824Z,1.90
2018-04-30T20:49:23.240Z,2.80
2018-04-30T20:51:50.636Z,1.70
2018-04-30T20:54:18.047Z,1.77
2018-04-30T20:56:45.459Z,1.93
2018-04-30T20:59:12.871Z,2.20
2018-04-30T21:01:40.259Z,1.33
2018-04-30T21:04:07.670Z,3.27
2018-04-30T21:06:35.126Z,2.73
2018-04-30T21:09:18.276Z,2.80
2018-04-30T21:11:45.702Z,2.10
2018-04-30T21:14:13.097Z,2.37
2018-04-30T21:16:40.684Z,4.03
2018-04-30T21:19:08.100Z,2.73
2018-04-30T21:21:35.501Z,2.13
2018-04-30T21:24:02.930Z,3.67
2018-04-30T21:26:30.336Z,2.10
2018-04-30T21:28:57.736Z,2.93
2018-04-30T21:31:25.148Z,4.33
2018-04-30T21:33:52.553Z,1.57
2018-04-30T21:36:19.972Z,4.73
2018-04-30T21:38:47.379Z,4.37
2018-04-30T21:41:15.151Z,3.10
2018-04-30T21:43:42.547Z,4.43
2018-04-30T21:46:09.946Z,3.90
2018-04-30T21:48:37.363Z,2.03
2018-04-30T21:51:04.764Z,3.30
2018-04-30T21:53:32.499Z,1.23
2018-04-30T21:55:59.899Z,2.10
2018-04-30T21:58:27.307Z,2.67
2018-04-30T22:00:54.716Z,1.60
2018-04-30T22:03:22.112Z,3.60
2018-04-30T22:05:49.537Z,2.43
2018-04-30T22:08:16.984Z,2.23
2018-04-30T22:10:44.392Z,2.87
2018-04-30T22:13:12.067Z,1.43
2018-04-30T22:15:39.491Z,5.57
2018-04-30T22:18:06.900Z,5.93
2018-04-30T22:20:34.320Z,4.27
2018-04-30T22:23:01.733Z,1.37
2018-04-30T22:25:29.144Z,6.93
2018-04-30T22:27:56.640Z,2.37
2018-04-30T22:30:24.133Z,3.70
2018-04-30T22:32:51.535Z,2.00
2018-04-30T22:35:18.945Z,5.10
2018-04-30T22:37:46.364Z,4.20
2018-04-30T22:40:13.768Z,4.93
2018-04-30T22:42:41.730Z,3.43
2018-04-30T22:45:09.409Z,1.90
2018-04-30T22:47:36.823Z,4.77
2018-04-30T22:50:04.242Z,6.43
2018-04-30T22:52:31.643Z,4.97
2018-04-30T22:54:59.065Z,2.57
2018-04-30T22:57:26.459Z,4.53
2018-04-30T22:59:54.200Z,2.03
2018-04-30T23:02:21.611Z,3.77
2018-04-30T23:04:49.017Z,1.83
2018-04-30T23:07:16.428Z,4.80
2018-04-30T23:09:44.247Z,5.33
2018-04-30T23:12:11.648Z,4.10
2018-04-30T23:14:39.083Z,4.13
2018-04-30T23:17:06.487Z,2.30
2018-04-30T23:19:33.912Z,1.87
2018-04-30T23:22:01.326Z,4.27
2018-04-30T23:24:28.989Z,4.13
2018-04-30T23:26:56.395Z,1.80
2018-04-30T23:29:23.815Z,4.03
2018-04-30T23:31:51.243Z,2.77
2018-04-30T23:34:18.648Z,2.03
2018-04-30T23:36:46.096Z,3.23
2018-04-30T23:39:13.500Z,2.70
2018-04-30T23:41:40.928Z,1.23
2018-04-30T23:44:08.340Z,3.03
2018-04-30T23:46:35.744Z,2.67
2018-04-30T23:49:03.416Z,4.97
2018-04-30T23:51:30.820Z,1.97
2018-04-30T23:53:58.224Z,1.60
2018-04-30T23:56:25.855Z,3.07
2018-04-30T23:58:53.766Z,2.80
